sensor_id;sensor_type;location;lat;lon;timestamp;pressure;altitude;pressure_sealevel;temperature;humidity
47240;BME280;32978;53.586;10.052;2023-02-14T00:01:27;103713.25;;;5.53;100.00
47240;BME280;32978;53.586;10.052;2023-02-14T00:06:24;103715.75;;;5.41;100.00
47240;BME280;32978;53.586;10.052;2023-02-14T00:11:21;103705.31;;;5.38;100.00
47240;BME280;32978;53.586;10.052;2023-02-14T00:16:18;103718.22;;;5.29;100.00
47240;BME280;32978;53.586;10.052;2023-02-14T00:21:14;103716.78;;;5.40;100.00
47240;BME280;32978;53.586;10.052;2023-02-14T00:26:14;103727.44;;;5.41;100.00
47240;BME280;32978;53.586;10.052;2023-02-14T00:31:11;103725.13;;;5.38;100.00
47240;BME280;32978;53.586;10.052;2023-02-14T00:36:09;103722.22;;;5.40;100.00
47240;BME280;32978;53.586;10.052;2023-02-14T00:41:06;103719.94;;;5.37;100.00
47240;BME280;32978;53.586;10.052;2023-02-14T00:46:02;103714.06;;;5.40;100.00
47240;BME280;32978;53.586;10.052;2023-02-14T00:50:59;103714.25;;;5.38;100.00
47240;BME280;32978;53.586;10.052;2023-02-14T00:55:55;103719.06;;;5.43;100.00
47240;BME280;32978;53.586;10.052;2023-02-14T01:00:52;103712.41;;;5.39;100.00
47240;BME280;32978;53.586;10.052;2023-02-14T01:05:49;103710.72;;;5.38;100.00
47240;BME280;32978;53.586;10.052;2023-02-14T01:10:46;103701.97;;;5.29;100.00
47240;BME280;32978;53.586;10.052;2023-02-14T01:15:48;103699.47;;;5.27;100.00
47240;BME280;32978;53.586;10.052;2023-02-14T01:20:44;103697.38;;;5.30;100.00
47240;BME280;32978;53.586;10.052;2023-02-14T01:25:41;103699.47;;;5.27;100.00
47240;BME280;32978;53.586;10.052;2023-02-14T01:30:37;103692.78;;;5.23;100.00
47240;BME280;32978;53.586;10.052;2023-02-14T01:35:36;103692.16;;;5.21;100.00
47240;BME280;32978;53.586;10.052;2023-02-14T01:40:33;103689.66;;;5.13;100.00
47240;BME280;32978;53.586;10.052;2023-02-14T01:45:30;103695.69;;;5.22;100.00
47240;BME280;32978;53.586;10.052;2023-02-14T01:50:31;103684.88;;;5.15;100.00
47240;BME280;32978;53.586;10.052;2023-02-14T01:55:31;103676.31;;;5.12;100.00
47240;BME280;32978;53.586;10.052;2023-02-14T02:00:29;103683.81;;;5.16;100.00
47240;BME280;32978;53.586;10.052;2023-02-14T02:05:47;103668.59;;;5.15;100.00
47240;BME280;32978;53.586;10.052;2023-02-14T02:10:46;103666.09;;;5.07;100.00
47240;BME280;32978;53.586;10.052;2023-02-14T02:15:58;103671.50;;;5.07;100.00
47240;BME280;32978;53.586;10.052;2023-02-14T02:26:33;103666.91;;;4.88;100.00
47240;BME280;32978;53.586;10.052;2023-02-14T02:53:02;103651.25;;;4.90;100.00
47240;BME280;32978;53.586;10.052;2023-02-14T02:58:02;103647.50;;;4.84;100.00
47240;BME280;32978;53.586;10.052;2023-02-14T03:02:59;103649.38;;;4.83;100.00
47240;BME280;32978;53.586;10.052;2023-02-14T03:08:14;103646.47;;;4.78;100.00
47240;BME280;32978;53.586;10.052;2023-02-14T03:13:41;103651.03;;;4.84;100.00
47240;BME280;32978;53.586;10.052;2023-02-14T03:19:09;103648.75;;;4.81;100.00
47240;BME280;32978;53.586;10.052;2023-02-14T03:34:51;103646.03;;;4.75;100.00
47240;BME280;32978;53.586;10.052;2023-02-14T03:40:05;103641.44;;;4.69;100.00
47240;BME280;32978;53.586;10.052;2023-02-14T03:45:06;103638.94;;;4.67;100.00
47240;BME280;32978;53.586;10.052;2023-02-14T03:50:10;103639.34;;;4.64;100.00
47240;BME280;32978;53.586;10.052;2023-02-14T03:55:10;103628.50;;;4.57;100.00
47240;BME280;32978;53.586;10.052;2023-02-14T04:00:10;103633.06;;;4.57;100.00
47240;BME280;32978;53.586;10.052;2023-02-14T04:05:12;103629.72;;;4.55;100.00
47240;BME280;32978;53.586;10.052;2023-02-14T04:10:11;103622.66;;;4.54;100.00
47240;BME280;32978;53.586;10.052;2023-02-14T04:15:07;103619.13;;;4.53;100.00
47240;BME280;32978;53.586;10.052;2023-02-14T04:20:04;103613.06;;;4.51;100.00
47240;BME280;32978;53.586;10.052;2023-02-14T04:25:01;103626.00;;;4.56;100.00
47240;BME280;32978;53.586;10.052;2023-02-14T04:29:57;103620.78;;;4.54;100.00
47240;BME280;32978;53.586;10.052;2023-02-14T04:34:54;103610.38;;;4.58;100.00
47240;BME280;32978;53.586;10.052;2023-02-14T04:39:50;103612.03;;;4.59;100.00
47240;BME280;32978;53.586;10.052;2023-02-14T04:44:47;103615.19;;;4.62;100.00
47240;BME280;32978;53.586;10.052;2023-02-14T04:49:43;103603.50;;;4.62;100.00
47240;BME280;32978;53.586;10.052;2023-02-14T04:54:40;103606.00;;;4.70;100.00
47240;BME280;32978;53.586;10.052;2023-02-14T04:59:36;103607.44;;;4.66;100.00
47240;BME280;32978;53.586;10.052;2023-02-14T05:04:33;103603.91;;;4.72;100.00
47240;BME280;32978;53.586;10.052;2023-02-14T05:09:29;103602.66;;;4.68;100.00
47240;BME280;32978;53.586;10.052;2023-02-14T05:14:26;103608.91;;;4.75;100.00
47240;BME280;32978;53.586;10.052;2023-02-14T05:19:23;103598.72;;;4.84;100.00
47240;BME280;32978;53.586;10.052;2023-02-14T05:24:19;103601.03;;;4.80;100.00
47240;BME280;32978;53.586;10.052;2023-02-14T05:29:16;103598.06;;;4.75;100.00
47240;BME280;32978;53.586;10.052;2023-02-14T05:34:13;103601.41;;;4.77;100.00
47240;BME280;32978;53.586;10.052;2023-02-14T05:39:09;103607.66;;;4.84;100.00
47240;BME280;32978;53.586;10.052;2023-02-14T05:44:09;103595.59;;;4.80;100.00
47240;BME280;32978;53.586;10.052;2023-02-14T05:49:06;103589.72;;;4.70;100.00
47240;BME280;32978;53.586;10.052;2023-02-14T05:54:02;103589.34;;;4.67;100.00
47240;BME280;32978;53.586;10.052;2023-02-14T05:58:59;103594.97;;;4.72;100.00
47240;BME280;32978;53.586;10.052;2023-02-14T06:03:55;103587.66;;;4.72;100.00
47240;BME280;32978;53.586;10.052;2023-02-14T06:08:51;103583.28;;;4.71;100.00
47240;BME280;32978;53.586;10.052;2023-02-14T06:13:48;103585.56;;;4.74;100.00
47240;BME280;32978;53.586;10.052;2023-02-14T06:18:44;103587.22;;;4.75;100.00
47240;BME280;32978;53.586;10.052;2023-02-14T06:23:41;103591.00;;;4.74;100.00
47240;BME280;32978;53.586;10.052;2023-02-14T06:28:38;103604.34;;;4.69;100.00
47240;BME280;32978;53.586;10.052;2023-02-14T06:33:34;103599.31;;;4.66;100.00
47240;BME280;32978;53.586;10.052;2023-02-14T06:38:31;103605.56;;;4.73;100.00
47240;BME280;32978;53.586;10.052;2023-02-14T06:43:27;103598.50;;;4.72;100.00
47240;BME280;32978;53.586;10.052;2023-02-14T06:48:24;103609.34;;;4.79;100.00
47240;BME280;32978;53.586;10.052;2023-02-14T06:53:21;103608.53;;;4.78;100.00
47240;BME280;32978;53.586;10.052;2023-02-14T06:58:17;103612.25;;;4.84;100.00
47240;BME280;32978;53.586;10.052;2023-02-14T07:03:14;103616.84;;;4.83;100.00
47240;BME280;32978;53.586;10.052;2023-02-14T07:08:11;103613.53;;;4.95;100.00
47240;BME280;32978;53.586;10.052;2023-02-14T07:13:07;103608.72;;;4.97;100.00
47240;BME280;32978;53.586;10.052;2023-02-14T07:18:04;103592.66;;;4.89;100.00
47240;BME280;32978;53.586;10.052;2023-02-14T07:23:03;103602.88;;;4.87;100.00
47240;BME280;32978;53.586;10.052;2023-02-14T07:28:00;103597.66;;;5.05;100.00
47240;BME280;32978;53.586;10.052;2023-02-14T07:32:57;103596.00;;;5.04;100.00
47240;BME280;32978;53.586;10.052;2023-02-14T07:37:54;103588.25;;;5.07;100.00
47240;BME280;32978;53.586;10.052;2023-02-14T07:42:52;103596.19;;;5.09;100.00
47240;BME280;32978;53.586;10.052;2023-02-14T07:47:51;103604.72;;;5.26;100.00
47240;BME280;32978;53.586;10.052;2023-02-14T07:52:48;103597.19;;;5.35;100.00
47240;BME280;32978;53.586;10.052;2023-02-14T07:57:47;103585.72;;;5.39;100.00
47240;BME280;32978;53.586;10.052;2023-02-14T08:02:44;103587.34;;;5.47;100.00
47240;BME280;32978;53.586;10.052;2023-02-14T08:07:40;103582.09;;;5.52;100.00
47240;BME280;32978;53.586;10.052;2023-02-14T08:12:38;103587.13;;;5.55;100.00
47240;BME280;32978;53.586;10.052;2023-02-14T08:17:55;103587.28;;;5.74;100.00
47240;BME280;32978;53.586;10.052;2023-02-14T08:22:51;103573.72;;;5.67;100.00
47240;BME280;32978;53.586;10.052;2023-02-14T08:27:48;103574.59;;;5.54;100.00
47240;BME280;32978;53.586;10.052;2023-02-14T08:32:44;103569.44;;;5.39;100.00
47240;BME280;32978;53.586;10.052;2023-02-14T08:37:41;103575.94;;;5.18;100.00
47240;BME280;32978;53.586;10.052;2023-02-14T08:42:37;103582.19;;;5.25;100.00
47240;BME280;32978;53.586;10.052;2023-02-14T08:47:34;103586.16;;;5.30;100.00
47240;BME280;32978;53.586;10.052;2023-02-14T08:52:30;103582.19;;;5.32;100.00
47240;BME280;32978;53.586;10.052;2023-02-14T08:57:27;103577.16;;;5.36;100.00
47240;BME280;32978;53.586;10.052;2023-02-14T09:02:24;103582.53;;;5.49;100.00
47240;BME280;32978;53.586;10.052;2023-02-14T09:07:20;103590.03;;;5.60;100.00
47240;BME280;32978;53.586;10.052;2023-02-14T09:12:17;103578.13;;;5.61;100.00
47240;BME280;32978;53.586;10.052;2023-02-14T09:17:15;103571.16;;;5.79;100.00
47240;BME280;32978;53.586;10.052;2023-02-14T09:22:11;103569.06;;;5.94;100.00
47240;BME280;32978;53.586;10.052;2023-02-14T09:27:08;103558.53;;;6.04;100.00
47240;BME280;32978;53.586;10.052;2023-02-14T09:32:04;103562.59;;;6.27;100.00
47240;BME280;32978;53.586;10.052;2023-02-14T09:37:01;103562.47;;;6.40;100.00
47240;BME280;32978;53.586;10.052;2023-02-14T09:47:54;103535.00;;;7.17;100.00
47240;BME280;32978;53.586;10.052;2023-02-14T09:52:56;103538.34;;;7.19;100.00
47240;BME280;32978;53.586;10.052;2023-02-14T09:58:14;103538.75;;;7.23;100.00
47240;BME280;32978;53.586;10.052;2023-02-14T10:13:46;103522.09;;;8.10;100.00
47240;BME280;32978;53.586;10.052;2023-02-14T10:18:59;103525.88;;;7.97;100.00
47240;BME280;32978;53.586;10.052;2023-02-14T10:24:12;103523.28;;;8.44;100.00
47240;BME280;32978;53.586;10.052;2023-02-14T10:29:15;103516.69;;;8.63;100.00
47240;BME280;32978;53.586;10.052;2023-02-14T10:40:17;103513.97;;;8.87;100.00
47240;BME280;32978;53.586;10.052;2023-02-14T10:50:48;103492.53;;;9.31;100.00
47240;BME280;32978;53.586;10.052;2023-02-14T10:56:19;103497.47;;;9.46;100.00
47240;BME280;32978;53.586;10.052;2023-02-14T11:01:17;103493.44;;;9.37;100.00
47240;BME280;32978;53.586;10.052;2023-02-14T11:06:14;103496.13;;;9.08;100.00
47240;BME280;32978;53.586;10.052;2023-02-14T11:11:17;103490.34;;;8.81;100.00
47240;BME280;32978;53.586;10.052;2023-02-14T11:16:32;103493.53;;;8.90;100.00
47240;BME280;32978;53.586;10.052;2023-02-14T11:21:36;103484.41;;;9.48;100.00
47240;BME280;32978;53.586;10.052;2023-02-14T11:26:33;103477.38;;;9.12;100.00
47240;BME280;32978;53.586;10.052;2023-02-14T11:31:33;103463.22;;;9.55;100.00
47240;BME280;32978;53.586;10.052;2023-02-14T11:36:31;103449.81;;;9.54;100.00
47240;BME280;32978;53.586;10.052;2023-02-14T11:41:45;103450.28;;;9.79;100.00
47240;BME280;32978;53.586;10.052;2023-02-14T11:46:42;103439.13;;;9.98;100.00
47240;BME280;32978;53.586;10.052;2023-02-14T11:51:49;103437.31;;;10.20;100.00
47240;BME280;32978;53.586;10.052;2023-02-14T11:56:49;103420.63;;;10.34;100.00
47240;BME280;32978;53.586;10.052;2023-02-14T12:01:47;103414.81;;;10.47;100.00
47240;BME280;32978;53.586;10.052;2023-02-14T12:06:43;103397.59;;;10.68;100.00
47240;BME280;32978;53.586;10.052;2023-02-14T12:11:56;103395.31;;;10.82;100.00
47240;BME280;32978;53.586;10.052;2023-02-14T12:17:11;103387.88;;;11.27;100.00
47240;BME280;32978;53.586;10.052;2023-02-14T12:22:14;103370.47;;;11.65;100.00
47240;BME280;32978;53.586;10.052;2023-02-14T12:32:29;103369.88;;;12.80;100.00
47240;BME280;32978;53.586;10.052;2023-02-14T12:48:15;103349.97;;;15.48;100.00
47240;BME280;32978;53.586;10.052;2023-02-14T13:09:20;103304.88;;;16.89;100.00
47240;BME280;32978;53.586;10.052;2023-02-14T13:14:43;103306.38;;;17.52;100.00
47240;BME280;32978;53.586;10.052;2023-02-14T13:25:03;103297.56;;;15.14;100.00
47240;BME280;32978;53.586;10.052;2023-02-14T13:30:10;103289.53;;;16.10;100.00
47240;BME280;32978;53.586;10.052;2023-02-14T13:35:16;103280.72;;;14.76;100.00
47240;BME280;32978;53.586;10.052;2023-02-14T13:40:21;103268.63;;;14.72;100.00
47240;BME280;32978;53.586;10.052;2023-02-14T13:50:37;103269.31;;;15.32;100.00
47240;BME280;32978;53.586;10.052;2023-02-14T13:55:35;103264.78;;;14.68;100.00
47240;BME280;32978;53.586;10.052;2023-02-14T14:00:43;103261.41;;;15.21;100.00
47240;BME280;32978;53.586;10.052;2023-02-14T14:11:01;103246.78;;;16.32;100.00
47240;BME280;32978;53.586;10.052;2023-02-14T14:16:18;103247.63;;;16.08;100.00
47240;BME280;32978;53.586;10.052;2023-02-14T14:21:26;103250.56;;;15.93;100.00
47240;BME280;32978;53.586;10.052;2023-02-14T14:26:32;103245.94;;;16.55;100.00
47240;BME280;32978;53.586;10.052;2023-02-14T14:31:30;103244.59;;;16.72;100.00
47240;BME280;32978;53.586;10.052;2023-02-14T14:36:27;103243.63;;;16.19;100.00
47240;BME280;32978;53.586;10.052;2023-02-14T14:41:27;103234.09;;;16.31;100.00
47240;BME280;32978;53.586;10.052;2023-02-14T14:46:24;103234.53;;;16.81;100.00
47240;BME280;32978;53.586;10.052;2023-02-14T14:56:24;103221.81;;;17.18;100.00
47240;BME280;32978;53.586;10.052;2023-02-14T15:01:32;103218.16;;;16.66;100.00
47240;BME280;32978;53.586;10.052;2023-02-14T15:06:31;103221.50;;;14.79;100.00
47240;BME280;32978;53.586;10.052;2023-02-14T15:11:27;103215.06;;;13.48;100.00
47240;BME280;32978;53.586;10.052;2023-02-14T15:16:48;103207.88;;;12.85;100.00
47240;BME280;32978;53.586;10.052;2023-02-14T15:21:46;103208.38;;;12.52;100.00
47240;BME280;32978;53.586;10.052;2023-02-14T15:26:44;103210.91;;;11.95;100.00
47240;BME280;32978;53.586;10.052;2023-02-14T15:31:41;103192.22;;;11.50;100.00
47240;BME280;32978;53.586;10.052;2023-02-14T15:36:40;103198.97;;;11.37;100.00
47240;BME280;32978;53.586;10.052;2023-02-14T15:41:44;103198.75;;;11.06;100.00
47240;BME280;32978;53.586;10.052;2023-02-14T15:46:41;103201.84;;;10.88;100.00
47240;BME280;32978;53.586;10.052;2023-02-14T15:51:38;103192.03;;;10.38;100.00
47240;BME280;32978;53.586;10.052;2023-02-14T15:56:40;103194.31;;;10.46;100.00
47240;BME280;32978;53.586;10.052;2023-02-14T16:01:38;103193.59;;;10.11;100.00
47240;BME280;32978;53.586;10.052;2023-02-14T16:06:41;103195.31;;;9.96;100.00
47240;BME280;32978;53.586;10.052;2023-02-14T16:11:39;103190.91;;;9.56;100.00
47240;BME280;32978;53.586;10.052;2023-02-14T16:16:55;103188.63;;;9.47;100.00
47240;BME280;32978;53.586;10.052;2023-02-14T16:21:55;103194.66;;;9.16;100.00
47240;BME280;32978;53.586;10.052;2023-02-14T16:26:52;103190.31;;;9.15;100.00
47240;BME280;32978;53.586;10.052;2023-02-14T16:31:53;103194.66;;;8.99;100.00
47240;BME280;32978;53.586;10.052;2023-02-14T16:37:28;103194.06;;;8.80;100.00
47240;BME280;32978;53.586;10.052;2023-02-14T16:42:25;103196.78;;;8.51;100.00
47240;BME280;32978;53.586;10.052;2023-02-14T16:47:22;103188.50;;;8.46;100.00
47240;BME280;32978;53.586;10.052;2023-02-14T16:52:22;103189.75;;;8.27;100.00
47240;BME280;32978;53.586;10.052;2023-02-14T16:57:22;103194.53;;;8.08;100.00
47240;BME280;32978;53.586;10.052;2023-02-14T17:02:23;103203.28;;;7.98;100.00
47240;BME280;32978;53.586;10.052;2023-02-14T17:07:23;103207.84;;;7.80;100.00
47240;BME280;32978;53.586;10.052;2023-02-14T17:12:23;103204.88;;;7.70;100.00
47240;BME280;32978;53.586;10.052;2023-02-14T17:17:22;103195.16;;;7.63;100.00
47240;BME280;32978;53.586;10.052;2023-02-14T17:22:19;103198.25;;;7.54;100.00
47240;BME280;32978;53.586;10.052;2023-02-14T17:27:15;103199.78;;;7.38;100.00
47240;BME280;32978;53.586;10.052;2023-02-14T17:32:12;103195.63;;;7.24;100.00
47240;BME280;32978;53.586;10.052;2023-02-14T17:37:09;103188.88;;;7.15;100.00
47240;BME280;32978;53.586;10.052;2023-02-14T17:42:05;103202.81;;;7.07;100.00
47240;BME280;32978;53.586;10.052;2023-02-14T17:47:03;103197.66;;;6.87;100.00
47240;BME280;32978;53.586;10.052;2023-02-14T17:51:59;103197.19;;;6.78;100.00
47240;BME280;32978;53.586;10.052;2023-02-14T17:56:55;103194.47;;;6.78;100.00
47240;BME280;32978;53.586;10.052;2023-02-14T18:01:52;103191.16;;;6.76;100.00
47240;BME280;32978;53.586;10.052;2023-02-14T18:06:48;103195.03;;;6.68;100.00
47240;BME280;32978;53.586;10.052;2023-02-14T18:11:45;103192.63;;;6.60;100.00
47240;BME280;32978;53.586;10.052;2023-02-14T18:16:42;103185.16;;;6.56;100.00
47240;BME280;32978;53.586;10.052;2023-02-14T18:21:38;103187.03;;;6.55;100.00
47240;BME280;32978;53.586;10.052;2023-02-14T18:26:37;103181.09;;;6.46;100.00
47240;BME280;32978;53.586;10.052;2023-02-14T18:31:35;103183.53;;;6.36;100.00
47240;BME280;32978;53.586;10.052;2023-02-14T18:36:34;103182.94;;;6.34;100.00
47240;BME280;32978;53.586;10.052;2023-02-14T18:41:31;103177.50;;;6.34;100.00
47240;BME280;32978;53.586;10.052;2023-02-14T18:46:32;103177.84;;;6.38;100.00
47240;BME280;32978;53.586;10.052;2023-02-14T18:51:33;103179.44;;;6.45;100.00
47240;BME280;32978;53.586;10.052;2023-02-14T18:56:32;103178.84;;;6.43;100.00
47240;BME280;32978;53.586;10.052;2023-02-14T19:01:31;103179.06;;;6.42;100.00
47240;BME280;32978;53.586;10.052;2023-02-14T19:06:29;103170.41;;;6.33;100.00
47240;BME280;32978;53.586;10.052;2023-02-14T19:11:28;103177.94;;;6.31;100.00
47240;BME280;32978;53.586;10.052;2023-02-14T19:16:29;103174.34;;;6.19;100.00
47240;BME280;32978;53.586;10.052;2023-02-14T19:21:28;103183.56;;;6.18;100.00
47240;BME280;32978;53.586;10.052;2023-02-14T19:26:28;103174.06;;;6.08;100.00
47240;BME280;32978;53.586;10.052;2023-02-14T19:31:25;103183.09;;;6.02;100.00
47240;BME280;32978;53.586;10.052;2023-02-14T19:36:22;103168.81;;;5.88;100.00
47240;BME280;32978;53.586;10.052;2023-02-14T19:41:23;103178.25;;;5.86;100.00
47240;BME280;32978;53.586;10.052;2023-02-14T19:46:20;103178.53;;;5.78;100.00
47240;BME280;32978;53.586;10.052;2023-02-14T19:51:20;103175.50;;;5.67;100.00
47240;BME280;32978;53.586;10.052;2023-02-14T19:56:18;103174.53;;;5.62;100.00
47240;BME280;32978;53.586;10.052;2023-02-14T20:01:29;103175.88;;;5.53;100.00
47240;BME280;32978;53.586;10.052;2023-02-14T20:06:27;103172.63;;;5.44;100.00
47240;BME280;32978;53.586;10.052;2023-02-14T20:11:33;103181.44;;;5.39;100.00
47240;BME280;32978;53.586;10.052;2023-02-14T20:16:33;103169.75;;;5.39;100.00
47240;BME280;32978;53.586;10.052;2023-02-14T20:21:29;103165.88;;;5.28;100.00
47240;BME280;32978;53.586;10.052;2023-02-14T20:26:30;103163.63;;;5.25;100.00
47240;BME280;32978;53.586;10.052;2023-02-14T20:31:27;103150.56;;;5.15;100.00
47240;BME280;32978;53.586;10.052;2023-02-14T20:36:24;103146.22;;;5.07;100.00
47240;BME280;32978;53.586;10.052;2023-02-14T20:41:21;103145.41;;;5.07;100.00
47240;BME280;32978;53.586;10.052;2023-02-14T20:46:18;103131.69;;;5.02;100.00
47240;BME280;32978;53.586;10.052;2023-02-14T20:51:17;103127.56;;;4.93;100.00
47240;BME280;32978;53.586;10.052;2023-02-14T20:56:14;103128.00;;;4.90;100.00
47240;BME280;32978;53.586;10.052;2023-02-14T21:01:13;103127.22;;;4.82;100.00
47240;BME280;32978;53.586;10.052;2023-02-14T21:06:11;103131.69;;;4.70;100.00
47240;BME280;32978;53.586;10.052;2023-02-14T21:11:10;103114.03;;;4.61;100.00
47240;BME280;32978;53.586;10.052;2023-02-14T21:16:12;103108.50;;;4.49;100.00
47240;BME280;32978;53.586;10.052;2023-02-14T21:21:20;103097.50;;;4.44;100.00
47240;BME280;32978;53.586;10.052;2023-02-14T21:26:18;103109.22;;;4.31;100.00
47240;BME280;32978;53.586;10.052;2023-02-14T21:31:16;103114.22;;;4.34;100.00
47240;BME280;32978;53.586;10.052;2023-02-14T21:36:18;103114.63;;;4.31;100.00
47240;BME280;32978;53.586;10.052;2023-02-14T21:41:23;103126.34;;;4.25;100.00
47240;BME280;32978;53.586;10.052;2023-02-14T21:46:26;103118.44;;;4.24;100.00
47240;BME280;32978;53.586;10.052;2023-02-14T21:51:33;103106.84;;;4.10;100.00
47240;BME280;32978;53.586;10.052;2023-02-14T21:56:34;103100.63;;;4.03;100.00
47240;BME280;32978;53.586;10.052;2023-02-14T22:01:36;103106.72;;;3.91;100.00
47240;BME280;32978;53.586;10.052;2023-02-14T22:06:39;103091.13;;;3.87;100.00
47240;BME280;32978;53.586;10.052;2023-02-14T22:11:37;103091.56;;;3.84;100.00
47240;BME280;32978;53.586;10.052;2023-02-14T22:16:34;103090.50;;;3.78;100.00
47240;BME280;32978;53.586;10.052;2023-02-14T22:21:42;103086.59;;;3.74;100.00
47240;BME280;32978;53.586;10.052;2023-02-14T22:26:42;103080.13;;;3.75;100.00
47240;BME280;32978;53.586;10.052;2023-02-14T22:31:47;103076.63;;;3.68;100.00
47240;BME280;32978;53.586;10.052;2023-02-14T22:36:44;103082.00;;;3.81;100.00
47240;BME280;32978;53.586;10.052;2023-02-14T22:41:46;103081.53;;;3.91;100.00
47240;BME280;32978;53.586;10.052;2023-02-14T22:46:57;103074.19;;;3.98;100.00
47240;BME280;32978;53.586;10.052;2023-02-14T22:52:15;103071.03;;;4.08;100.00
47240;BME280;32978;53.586;10.052;2023-02-14T22:57:14;103074.34;;;4.10;100.00
47240;BME280;32978;53.586;10.052;2023-02-14T23:02:13;103071.53;;;3.91;100.00
47240;BME280;32978;53.586;10.052;2023-02-14T23:07:18;103071.09;;;3.94;100.00
47240;BME280;32978;53.586;10.052;2023-02-14T23:12:31;103066.56;;;3.88;100.00
47240;BME280;32978;53.586;10.052;2023-02-14T23:17:46;103064.88;;;3.87;100.00
47240;BME280;32978;53.586;10.052;2023-02-14T23:23:01;103065.66;;;3.94;100.00
47240;BME280;32978;53.586;10.052;2023-02-14T23:27:58;103065.72;;;3.88;100.00
47240;BME280;32978;53.586;10.052;2023-02-14T23:32:54;103060.47;;;3.99;100.00
47240;BME280;32978;53.586;10.052;2023-02-14T23:37:51;103053.53;;;4.04;100.00
47240;BME280;32978;53.586;10.052;2023-02-14T23:42:47;103058.78;;;3.98;100.00
47240;BME280;32978;53.586;10.052;2023-02-14T23:47:44;103049.38;;;4.08;100.00
47240;BME280;32978;53.586;10.052;2023-02-14T23:52:40;103053.44;;;4.24;100.00
47240;BME280;32978;53.586;10.052;2023-02-14T23:57:37;103035.13;;;4.19;100.00
